sensor_id;sensor_type;location;lat;lon;timestamp;pressure;altitude;pressure_sealevel;temperature;humidity
11049;BME280;5577;42.706;23.160;2022-12-01T00:00:20;94352.38;;;2.95;100.00
11049;BME280;5577;42.706;23.160;2022-12-01T00:03:04;94354.00;;;2.91;100.00
11049;BME280;5577;42.706;23.160;2022-12-01T00:06:02;94348.00;;;2.91;100.00
11049;BME280;5577;42.706;23.160;2022-12-01T00:08:48;94344.63;;;2.90;100.00
11049;BME280;5577;42.706;23.160;2022-12-01T00:11:51;94339.50;;;2.85;100.00
11049;BME280;5577;42.706;23.160;2022-12-01T00:14:35;94342.13;;;2.85;100.00
11049;BME280;5577;42.706;23.160;2022-12-01T00:17:20;94328.56;;;2.83;100.00
11049;BME280;5577;42.706;23.160;2022-12-01T00:20:05;94337.75;;;2.81;100.00
11049;BME280;5577;42.706;23.160;2022-12-01T00:22:50;94331.75;;;2.80;100.00
11049;BME280;5577;42.706;23.160;2022-12-01T00:25:34;94322.19;;;2.76;100.00
11049;BME280;5577;42.706;23.160;2022-12-01T00:28:18;94333.41;;;2.76;100.00
11049;BME280;5577;42.706;23.160;2022-12-01T00:31:06;94333.91;;;2.78;100.00
11049;BME280;5577;42.706;23.160;2022-12-01T00:33:51;94328.94;;;2.77;100.00
11049;BME280;5577;42.706;23.160;2022-12-01T00:36:35;94317.53;;;2.73;100.00
11049;BME280;5577;42.706;23.160;2022-12-01T00:39:19;94315.97;;;2.72;100.00
11049;BME280;5577;42.706;23.160;2022-12-01T00:42:03;94335.44;;;2.79;100.00
11049;BME280;5577;42.706;23.160;2022-12-01T00:44:47;94333.91;;;2.78;100.00
11049;BME280;5577;42.706;23.160;2022-12-01T00:47:31;94324.69;;;2.81;100.00
11049;BME280;5577;42.706;23.160;2022-12-01T00:50:15;94335.63;;;2.83;100.00
11049;BME280;5577;42.706;23.160;2022-12-01T00:52:59;94341.16;;;2.81;100.00
11049;BME280;5577;42.706;23.160;2022-12-01T00:55:43;94329.34;;;2.84;100.00
11049;BME280;5577;42.706;23.160;2022-12-01T00:58:27;94331.38;;;2.87;100.00
11049;BME280;5577;42.706;23.160;2022-12-01T01:01:11;94333.50;;;2.85;100.00
11049;BME280;5577;42.706;23.160;2022-12-01T01:03:57;94337.47;;;2.82;100.00
11049;BME280;5577;42.706;23.160;2022-12-01T01:06:41;94332.53;;;2.81;100.00
11049;BME280;5577;42.706;23.160;2022-12-01T01:09:28;94331.06;;;2.75;100.00
11049;BME280;5577;42.706;23.160;2022-12-01T01:12:13;94330.50;;;2.78;100.00
11049;BME280;5577;42.706;23.160;2022-12-01T01:14:57;94337.09;;;2.75;100.00
11049;BME280;5577;42.706;23.160;2022-12-01T01:17:41;94324.78;;;2.62;100.00
11049;BME280;5577;42.706;23.160;2022-12-01T01:20:25;94331.75;;;2.67;100.00
11049;BME280;5577;42.706;23.160;2022-12-01T01:23:08;94329.94;;;2.67;100.00
11049;BME280;5577;42.706;23.160;2022-12-01T01:25:52;94307.97;;;2.55;100.00
11049;BME280;5577;42.706;23.160;2022-12-01T01:28:36;94325.00;;;2.66;100.00
11049;BME280;5577;42.706;23.160;2022-12-01T01:31:23;94312.97;;;2.65;100.00
11049;BME280;5577;42.706;23.160;2022-12-01T01:34:07;94314.06;;;2.64;100.00
11049;BME280;5577;42.706;23.160;2022-12-01T01:36:51;94311.44;;;2.64;100.00
11049;BME280;5577;42.706;23.160;2022-12-01T01:39:35;94307.75;;;2.65;100.00
11049;BME280;5577;42.706;23.160;2022-12-01T01:42:19;94311.34;;;2.69;100.00
11049;BME280;5577;42.706;23.160;2022-12-01T01:45:10;94313.97;;;2.69;100.00
11049;BME280;5577;42.706;23.160;2022-12-01T01:47:59;94309.78;;;2.68;100.00
11049;BME280;5577;42.706;23.160;2022-12-01T01:50:43;94312.69;;;2.66;100.00
11049;BME280;5577;42.706;23.160;2022-12-01T01:53:27;94309.31;;;2.66;100.00
11049;BME280;5577;42.706;23.160;2022-12-01T01:56:12;94303.59;;;2.64;100.00
11049;BME280;5577;42.706;23.160;2022-12-01T01:58:57;94305.25;;;2.60;100.00
11049;BME280;5577;42.706;23.160;2022-12-01T02:01:42;94299.53;;;2.58;100.00
11049;BME280;5577;42.706;23.160;2022-12-01T02:04:26;94294.13;;;2.54;100.00
11049;BME280;5577;42.706;23.160;2022-12-01T02:07:13;94309.31;;;2.52;100.00
11049;BME280;5577;42.706;23.160;2022-12-01T02:09:57;94301.75;;;2.51;100.00
11049;BME280;5577;42.706;23.160;2022-12-01T02:28:00;94291.22;;;2.29;100.00
11049;BME280;5577;42.706;23.160;2022-12-01T02:34:01;94290.53;;;2.23;100.00
11049;BME280;5577;42.706;23.160;2022-12-01T02:37:12;94215.88;;;1.82;100.00
11049;BME280;5577;42.706;23.160;2022-12-01T02:40:34;94290.81;;;2.22;100.00
11049;BME280;5577;42.706;23.160;2022-12-01T02:46:37;94283.09;;;2.17;100.00
11049;BME280;5577;42.706;23.160;2022-12-01T02:49:29;94290.16;;;2.16;100.00
11049;BME280;5577;42.706;23.160;2022-12-01T02:52:17;94281.84;;;2.14;100.00
11049;BME280;5577;42.706;23.160;2022-12-01T02:55:03;94284.94;;;2.16;100.00
11049;BME280;5577;42.706;23.160;2022-12-01T02:57:47;94282.59;;;2.15;100.00
11049;BME280;5577;42.706;23.160;2022-12-01T03:00:31;94279.22;;;2.14;100.00
11049;BME280;5577;42.706;23.160;2022-12-01T03:03:22;94285.22;;;2.15;100.00
11049;BME280;5577;42.706;23.160;2022-12-01T03:06:28;94289.69;;;2.14;100.00
11049;BME280;5577;42.706;23.160;2022-12-01T03:12:18;94281.25;;;2.17;100.00
11049;BME280;5577;42.706;23.160;2022-12-01T03:18:31;94280.19;;;2.18;100.00
11049;BME280;5577;42.706;23.160;2022-12-01T03:21:38;94280.50;;;2.17;100.00
11049;BME280;5577;42.706;23.160;2022-12-01T03:24:26;94276.31;;;2.16;100.00
11049;BME280;5577;42.706;23.160;2022-12-01T03:27:15;94267.44;;;2.17;100.00
11049;BME280;5577;42.706;23.160;2022-12-01T03:30:02;94203.47;;;1.74;100.00
11049;BME280;5577;42.706;23.160;2022-12-01T03:32:55;94271.00;;;2.21;100.00
11049;BME280;5577;42.706;23.160;2022-12-01T03:35:49;94275.25;;;2.17;100.00
11049;BME280;5577;42.706;23.160;2022-12-01T03:38:38;94273.22;;;2.14;100.00
11049;BME280;5577;42.706;23.160;2022-12-01T03:41:27;94278.16;;;2.15;100.00
11049;BME280;5577;42.706;23.160;2022-12-01T03:44:20;94265.69;;;2.12;100.00
11049;BME280;5577;42.706;23.160;2022-12-01T03:47:08;94279.81;;;2.11;100.00
11049;BME280;5577;42.706;23.160;2022-12-01T03:49:54;94270.31;;;2.15;100.00
11049;BME280;5577;42.706;23.160;2022-12-01T03:53:06;94275.25;;;2.17;100.00
11049;BME280;5577;42.706;23.160;2022-12-01T03:55:57;94226.13;;;1.92;100.00
11049;BME280;5577;42.706;23.160;2022-12-01T03:58:46;94258.63;;;2.13;100.00
11049;BME280;5577;42.706;23.160;2022-12-01T04:01:32;94264.91;;;2.12;100.00
11049;BME280;5577;42.706;23.160;2022-12-01T04:04:16;94260.75;;;2.11;100.00
11049;BME280;5577;42.706;23.160;2022-12-01T04:07:00;94281.63;;;2.11;100.00
11049;BME280;5577;42.706;23.160;2022-12-01T04:09:44;94265.00;;;2.07;100.00
11049;BME280;5577;42.706;23.160;2022-12-01T04:12:28;94265.47;;;2.09;100.00
11049;BME280;5577;42.706;23.160;2022-12-01T04:15:13;94252.13;;;1.97;100.00
11049;BME280;5577;42.706;23.160;2022-12-01T04:17:57;94270.41;;;2.10;100.00
11049;BME280;5577;42.706;23.160;2022-12-01T04:20:42;94254.44;;;2.12;100.00
11049;BME280;5577;42.706;23.160;2022-12-01T04:23:26;94260.47;;;2.12;100.00
11049;BME280;5577;42.706;23.160;2022-12-01T04:26:31;94278.44;;;2.14;100.00
11049;BME280;5577;42.706;23.160;2022-12-01T04:29:15;94274.59;;;2.11;100.00
11049;BME280;5577;42.706;23.160;2022-12-01T04:31:59;94261.81;;;2.10;100.00
11049;BME280;5577;42.706;23.160;2022-12-01T04:34:43;94274.78;;;2.15;100.00
11049;BME280;5577;42.706;23.160;2022-12-01T04:37:27;94279.22;;;2.14;100.00
11049;BME280;5577;42.706;23.160;2022-12-01T04:40:11;94276.03;;;2.17;100.00
11049;BME280;5577;42.706;23.160;2022-12-01T04:42:56;94280.78;;;2.15;100.00
11049;BME280;5577;42.706;23.160;2022-12-01T04:45:39;94284.13;;;2.16;100.00
11049;BME280;5577;42.706;23.160;2022-12-01T04:48:24;94277.59;;;2.18;100.00
11049;BME280;5577;42.706;23.160;2022-12-01T04:51:08;94283.28;;;2.20;100.00
11049;BME280;5577;42.706;23.160;2022-12-01T04:53:52;94278.34;;;2.19;100.00
11049;BME280;5577;42.706;23.160;2022-12-01T04:56:36;94278.63;;;2.17;100.00
11049;BME280;5577;42.706;23.160;2022-12-01T04:59:20;94276.81;;;2.18;100.00
11049;BME280;5577;42.706;23.160;2022-12-01T05:02:04;94277.59;;;2.18;100.00
11049;BME280;5577;42.706;23.160;2022-12-01T05:04:48;94280.97;;;2.19;100.00
11049;BME280;5577;42.706;23.160;2022-12-01T05:07:31;94271.97;;;2.11;100.00
11049;BME280;5577;42.706;23.160;2022-12-01T05:10:15;94226.31;;;1.82;100.00
11049;BME280;5577;42.706;23.160;2022-12-01T05:13:04;94276.81;;;2.18;100.00
11049;BME280;5577;42.706;23.160;2022-12-01T05:15:49;94277.09;;;2.16;100.00
11049;BME280;5577;42.706;23.160;2022-12-01T05:18:33;94278.91;;;2.16;100.00
11049;BME280;5577;42.706;23.160;2022-12-01T05:21:17;94288.78;;;2.19;100.00
11049;BME280;5577;42.706;23.160;2022-12-01T05:24:01;94291.22;;;2.15;100.00
11049;BME280;5577;42.706;23.160;2022-12-01T05:26:45;94294.91;;;2.14;100.00
11049;BME280;5577;42.706;23.160;2022-12-01T05:29:28;94261.50;;;1.98;100.00
11049;BME280;5577;42.706;23.160;2022-12-01T05:32:15;94290.16;;;2.16;100.00
11049;BME280;5577;42.706;23.160;2022-12-01T05:34:59;94282.78;;;2.05;100.00
11049;BME280;5577;42.706;23.160;2022-12-01T05:37:43;94293.63;;;2.12;100.00
11049;BME280;5577;42.706;23.160;2022-12-01T05:40:27;94302.53;;;2.11;100.00
11049;BME280;5577;42.706;23.160;2022-12-01T05:43:13;94291.19;;;2.02;100.00
11049;BME280;5577;42.706;23.160;2022-12-01T05:45:57;94250.16;;;1.75;100.00
11049;BME280;5577;42.706;23.160;2022-12-01T05:48:41;94310.84;;;2.13;100.00
11049;BME280;5577;42.706;23.160;2022-12-01T05:51:26;94302.75;;;2.14;100.00
11049;BME280;5577;42.706;23.160;2022-12-01T05:54:10;94300.13;;;2.14;100.00
11049;BME280;5577;42.706;23.160;2022-12-01T05:56:54;94306.97;;;2.10;100.00
11049;BME280;5577;42.706;23.160;2022-12-01T05:59:38;94300.41;;;2.13;100.00
11049;BME280;5577;42.706;23.160;2022-12-01T06:02:22;94310.56;;;2.14;100.00
11049;BME280;5577;42.706;23.160;2022-12-01T06:05:07;94253.28;;;1.77;100.00
11049;BME280;5577;42.706;23.160;2022-12-01T06:07:51;94306.50;;;2.08;100.00
11049;BME280;5577;42.706;23.160;2022-12-01T06:10:35;94312.78;;;2.07;100.00
11049;BME280;5577;42.706;23.160;2022-12-01T06:13:19;94320.81;;;2.11;100.00
11049;BME280;5577;42.706;23.160;2022-12-01T06:16:04;94313.38;;;2.18;100.00
11049;BME280;5577;42.706;23.160;2022-12-01T06:18:49;94312.88;;;2.16;100.00
11049;BME280;5577;42.706;23.160;2022-12-01T06:21:33;94316.66;;;2.10;100.00
11049;BME280;5577;42.706;23.160;2022-12-01T06:24:17;94316.38;;;2.11;100.00
11049;BME280;5577;42.706;23.160;2022-12-01T06:27:01;94256.44;;;1.74;100.00
11049;BME280;5577;42.706;23.160;2022-12-01T06:29:45;94308.41;;;2.03;100.00
11049;BME280;5577;42.706;23.160;2022-12-01T06:32:29;94311.78;;;2.03;100.00
11049;BME280;5577;42.706;23.160;2022-12-01T06:35:13;94313.81;;;2.06;100.00
11049;BME280;5577;42.706;23.160;2022-12-01T06:37:57;94311.72;;;2.08;100.00
11049;BME280;5577;42.706;23.160;2022-12-01T06:40:42;94304.94;;;2.07;100.00
11049;BME280;5577;42.706;23.160;2022-12-01T06:43:26;94306.09;;;2.01;100.00
11049;BME280;5577;42.706;23.160;2022-12-01T06:46:10;94293.03;;;2.01;100.00
11049;BME280;5577;42.706;23.160;2022-12-01T06:48:54;94304.16;;;1.93;100.00
11049;BME280;5577;42.706;23.160;2022-12-01T06:51:38;94293.78;;;1.75;100.00
11049;BME280;5577;42.706;23.160;2022-12-01T06:54:23;94314.66;;;1.88;100.00
11049;BME280;5577;42.706;23.160;2022-12-01T06:57:06;94278.28;;;1.65;100.00
11049;BME280;5577;42.706;23.160;2022-12-01T06:59:50;94315.44;;;1.89;100.00
11049;BME280;5577;42.706;23.160;2022-12-01T07:02:35;94315.44;;;1.89;100.00
11049;BME280;5577;42.706;23.160;2022-12-01T07:05:19;94288.44;;;1.66;100.00
11049;BME280;5577;42.706;23.160;2022-12-01T07:08:03;94313.97;;;1.83;100.00
11049;BME280;5577;42.706;23.160;2022-12-01T07:11:00;94319.88;;;1.88;100.00
11049;BME280;5577;42.706;23.160;2022-12-01T07:13:44;94325.09;;;1.88;100.00
11049;BME280;5577;42.706;23.160;2022-12-01T07:16:28;94311.78;;;1.90;100.00
11049;BME280;5577;42.706;23.160;2022-12-01T07:19:12;94322.31;;;1.85;100.00
11049;BME280;5577;42.706;23.160;2022-12-01T07:21:56;94331.69;;;1.86;100.00
11049;BME280;5577;42.706;23.160;2022-12-01T07:24:40;94327.59;;;1.80;100.00
11049;BME280;5577;42.706;23.160;2022-12-01T07:27:24;94324.50;;;1.78;100.00
11049;BME280;5577;42.706;23.160;2022-12-01T07:30:11;94326.13;;;1.74;100.00
11049;BME280;5577;42.706;23.160;2022-12-01T07:32:55;94329.41;;;1.66;100.00
11049;BME280;5577;42.706;23.160;2022-12-01T07:35:39;94325.44;;;1.68;100.00
11049;BME280;5577;42.706;23.160;2022-12-01T07:38:23;94325.72;;;1.67;100.00
11049;BME280;5577;42.706;23.160;2022-12-01T07:41:10;94336.53;;;1.60;100.00
11049;BME280;5577;42.706;23.160;2022-12-01T07:43:54;94346.41;;;1.63;100.00
11049;BME280;5577;42.706;23.160;2022-12-01T07:46:38;94338.56;;;1.63;100.00
11049;BME280;5577;42.706;23.160;2022-12-01T07:49:22;94332.38;;;1.59;100.00
11049;BME280;5577;42.706;23.160;2022-12-01T07:52:06;94336.53;;;1.60;100.00
11049;BME280;5577;42.706;23.160;2022-12-01T07:54:50;94288.72;;;1.33;100.00
11049;BME280;5577;42.706;23.160;2022-12-01T07:57:34;94340.47;;;1.58;100.00
11049;BME280;5577;42.706;23.160;2022-12-01T08:00:18;94333.91;;;1.60;100.00
11049;BME280;5577;42.706;23.160;2022-12-01T08:03:02;94337.38;;;1.56;100.00
11049;BME280;5577;42.706;23.160;2022-12-01T08:06:00;94334.19;;;1.59;100.00
11049;BME280;5577;42.706;23.160;2022-12-01T08:08:44;94333.91;;;1.60;100.00
11049;BME280;5577;42.706;23.160;2022-12-01T08:11:28;94350.34;;;1.61;100.00
11049;BME280;5577;42.706;23.160;2022-12-01T08:14:12;94336.34;;;1.57;100.00
11049;BME280;5577;42.706;23.160;2022-12-01T08:16:56;94345.34;;;1.64;100.00
11049;BME280;5577;42.706;23.160;2022-12-01T08:19:40;94336.47;;;1.65;100.00
11049;BME280;5577;42.706;23.160;2022-12-01T08:22:24;94341.69;;;1.65;100.00
11049;BME280;5577;42.706;23.160;2022-12-01T08:25:08;94357.25;;;1.70;100.00
11049;BME280;5577;42.706;23.160;2022-12-01T08:27:52;94339.34;;;1.64;100.00
11049;BME280;5577;42.706;23.160;2022-12-01T08:30:36;94352.59;;;1.67;100.00
11049;BME280;5577;42.706;23.160;2022-12-01T08:33:20;94300.59;;;1.39;100.00
11049;BME280;5577;42.706;23.160;2022-12-01T08:36:05;94302.91;;;1.40;100.00
11049;BME280;5577;42.706;23.160;2022-12-01T08:38:52;94341.88;;;1.69;100.00
11049;BME280;5577;42.706;23.160;2022-12-01T08:41:36;94297.34;;;1.47;100.00
11049;BME280;5577;42.706;23.160;2022-12-01T08:44:20;94341.31;;;1.72;100.00
11049;BME280;5577;42.706;23.160;2022-12-01T08:47:04;94326.44;;;1.72;100.00
11049;BME280;5577;42.706;23.160;2022-12-01T08:49:48;94328.44;;;1.75;100.00
11049;BME280;5577;42.706;23.160;2022-12-01T08:52:33;94341.16;;;1.82;100.00
11049;BME280;5577;42.706;23.160;2022-12-01T08:55:18;94296.81;;;1.63;100.00
11049;BME280;5577;42.706;23.160;2022-12-01T08:58:02;94336.25;;;1.94;100.00
11049;BME280;5577;42.706;23.160;2022-12-01T09:00:46;94329.94;;;1.95;100.00
11049;BME280;5577;42.706;23.160;2022-12-01T09:03:30;94323.97;;;1.94;100.00
11049;BME280;5577;42.706;23.160;2022-12-01T09:06:17;94318.66;;;1.99;100.00
11049;BME280;5577;42.706;23.160;2022-12-01T09:09:03;94320.13;;;2.05;100.00
11049;BME280;5577;42.706;23.160;2022-12-01T09:11:48;94313.75;;;2.11;100.00
11049;BME280;5577;42.706;23.160;2022-12-01T09:14:36;94314.44;;;2.17;100.00
11049;BME280;5577;42.706;23.160;2022-12-01T09:17:22;94268.66;;;1.92;100.00
11049;BME280;5577;42.706;23.160;2022-12-01T09:20:06;94296.81;;;2.09;100.00
11049;BME280;5577;42.706;23.160;2022-12-01T09:22:50;94302.63;;;2.19;100.00
11049;BME280;5577;42.706;23.160;2022-12-01T09:25:34;94292.69;;;2.21;100.00
11049;BME280;5577;42.706;23.160;2022-12-01T09:28:19;94307.19;;;2.27;100.00
11049;BME280;5577;42.706;23.160;2022-12-01T09:31:07;94307.38;;;2.31;100.00
11049;BME280;5577;42.706;23.160;2022-12-01T09:33:57;94300.97;;;2.37;100.00
11049;BME280;5577;42.706;23.160;2022-12-01T09:36:42;94267.50;;;2.12;100.00
11049;BME280;5577;42.706;23.160;2022-12-01T09:39:25;94303.50;;;2.42;100.00
11049;BME280;5577;42.706;23.160;2022-12-01T09:42:13;94301.47;;;2.39;100.00
11049;BME280;5577;42.706;23.160;2022-12-01T09:44:59;94299.94;;;2.38;100.00
11049;BME280;5577;42.706;23.160;2022-12-01T09:47:45;94301.19;;;2.40;100.00
11049;BME280;5577;42.706;23.160;2022-12-01T09:50:30;94296.75;;;2.41;100.00
11049;BME280;5577;42.706;23.160;2022-12-01T09:53:19;94289.88;;;2.45;100.00
11049;BME280;5577;42.706;23.160;2022-12-01T09:56:04;94275.94;;;2.36;100.00
11049;BME280;5577;42.706;23.160;2022-12-01T09:58:51;94287.72;;;2.47;100.00
11049;BME280;5577;42.706;23.160;2022-12-01T10:01:38;94292.66;;;2.48;100.00
11049;BME280;5577;42.706;23.160;2022-12-01T10:04:35;94299.94;;;2.51;100.00
11049;BME280;5577;42.706;23.160;2022-12-01T10:07:35;94272.34;;;2.45;100.00
11049;BME280;5577;42.706;23.160;2022-12-01T10:10:34;94283.78;;;2.49;100.00
11049;BME280;5577;42.706;23.160;2022-12-01T10:13:25;94287.06;;;2.55;100.00
11049;BME280;5577;42.706;23.160;2022-12-01T10:16:12;94281.91;;;2.63;100.00
11049;BME280;5577;42.706;23.160;2022-12-01T10:19:06;94274.84;;;2.64;100.00
11049;BME280;5577;42.706;23.160;2022-12-01T10:22:08;94275.81;;;2.68;100.00
11049;BME280;5577;42.706;23.160;2022-12-01T10:25:12;94274.28;;;2.67;100.00
11049;BME280;5577;42.706;23.160;2022-12-01T10:31:17;94271.81;;;2.70;100.00
11049;BME280;5577;42.706;23.160;2022-12-01T10:34:24;94269.72;;;2.72;100.00
11049;BME280;5577;42.706;23.160;2022-12-01T10:37:21;94259.13;;;2.77;100.00
11049;BME280;5577;42.706;23.160;2022-12-01T10:40:11;94267.66;;;2.83;100.00
11049;BME280;5577;42.706;23.160;2022-12-01T10:42:56;94265.94;;;2.78;100.00
11049;BME280;5577;42.706;23.160;2022-12-01T10:45:42;94258.19;;;2.73;100.00
11049;BME280;5577;42.706;23.160;2022-12-01T10:48:27;94263.78;;;2.80;100.00
11049;BME280;5577;42.706;23.160;2022-12-01T10:51:16;94265.06;;;2.83;100.00
11049;BME280;5577;42.706;23.160;2022-12-01T10:54:07;94255.34;;;2.83;100.00
11049;BME280;5577;42.706;23.160;2022-12-01T10:56:55;94263.41;;;2.87;100.00
11049;BME280;5577;42.706;23.160;2022-12-01T10:59:51;94258.34;;;2.90;100.00
11049;BME280;5577;42.706;23.160;2022-12-01T11:02:42;94229.63;;;2.77;100.00
11049;BME280;5577;42.706;23.160;2022-12-01T11:05:29;94250.41;;;2.95;100.00
11049;BME280;5577;42.706;23.160;2022-12-01T11:08:24;94249.63;;;2.95;100.00
11049;BME280;5577;42.706;23.160;2022-12-01T11:11:25;94240.22;;;2.94;100.00
11049;BME280;5577;42.706;23.160;2022-12-01T11:14:18;94246.50;;;2.93;100.00
11049;BME280;5577;42.706;23.160;2022-12-01T11:17:29;94244.38;;;2.95;100.00
11049;BME280;5577;42.706;23.160;2022-12-01T11:20:34;94247.94;;;2.99;100.00
11049;BME280;5577;42.706;23.160;2022-12-01T11:26:17;94258.63;;;3.03;100.00
11049;BME280;5577;42.706;23.160;2022-12-01T11:37:58;94254.09;;;2.81;100.00
11049;BME280;5577;42.706;23.160;2022-12-01T11:40:51;94254.69;;;2.78;100.00
11049;BME280;5577;42.706;23.160;2022-12-01T11:43:37;94211.50;;;2.45;100.00
11049;BME280;5577;42.706;23.160;2022-12-01T11:46:42;94255.84;;;2.72;100.00
11049;BME280;5577;42.706;23.160;2022-12-01T11:49:28;94258.00;;;2.70;100.00
11049;BME280;5577;42.706;23.160;2022-12-01T11:52:21;94208.50;;;2.38;100.00
11049;BME280;5577;42.706;23.160;2022-12-01T11:58:01;94258.63;;;2.53;100.00
11049;BME280;5577;42.706;23.160;2022-12-01T12:00:52;94227.41;;;2.21;100.00
11049;BME280;5577;42.706;23.160;2022-12-01T12:03:57;94260.75;;;2.38;100.00
11049;BME280;5577;42.706;23.160;2022-12-01T12:34:30;94282.38;;;1.98;100.00
11049;BME280;5577;42.706;23.160;2022-12-01T12:37:27;94281.63;;;1.97;100.00
11049;BME280;5577;42.706;23.160;2022-12-01T12:50:07;94271.38;;;1.87;100.00
11049;BME280;5577;42.706;23.160;2022-12-01T12:52:36;94271.06;;;1.89;100.00
11049;BME280;5577;42.706;23.160;2022-12-01T12:55:31;94261.50;;;1.84;100.00
11049;BME280;5577;42.706;23.160;2022-12-01T12:58:34;94279.38;;;1.91;100.00
11049;BME280;5577;42.706;23.160;2022-12-01T13:01:26;94277.34;;;1.88;100.00
11049;BME280;5577;42.706;23.160;2022-12-01T13:04:26;94288.84;;;1.87;100.00
11049;BME280;5577;42.706;23.160;2022-12-01T13:13:24;94282.56;;;1.88;100.00
11049;BME280;5577;42.706;23.160;2022-12-01T13:16:41;94287.19;;;1.77;100.00
11049;BME280;5577;42.706;23.160;2022-12-01T13:19:30;94288.72;;;1.78;100.00
11049;BME280;5577;42.706;23.160;2022-12-01T13:22:18;94291.72;;;1.72;100.00
11049;BME280;5577;42.706;23.160;2022-12-01T13:25:04;94285.72;;;1.71;100.00
11049;BME280;5577;42.706;23.160;2022-12-01T13:27:50;94292.97;;;1.74;100.00
11049;BME280;5577;42.706;23.160;2022-12-01T13:30:34;94300.13;;;1.69;100.00
11049;BME280;5577;42.706;23.160;2022-12-01T13:33:21;94303.41;;;1.74;100.00
11049;BME280;5577;42.706;23.160;2022-12-01T13:36:10;94303.03;;;1.81;100.00
11049;BME280;5577;42.706;23.160;2022-12-01T13:39:19;94298.59;;;1.81;100.00
11049;BME280;5577;42.706;23.160;2022-12-01T13:42:18;94294.16;;;1.82;100.00
11049;BME280;5577;42.706;23.160;2022-12-01T13:45:09;94292.41;;;1.77;100.00
11049;BME280;5577;42.706;23.160;2022-12-01T13:47:59;94245.47;;;1.45;100.00
11049;BME280;5577;42.706;23.160;2022-12-01T13:53:35;94286.00;;;1.70;100.00
11049;BME280;5577;42.706;23.160;2022-12-01T13:56:24;94290.19;;;1.71;100.00
11049;BME280;5577;42.706;23.160;2022-12-01T14:02:34;94287.19;;;1.77;100.00
11049;BME280;5577;42.706;23.160;2022-12-01T14:11:28;94282.78;;;1.91;100.00
11049;BME280;5577;42.706;23.160;2022-12-01T14:14:18;94281.53;;;1.89;100.00
11049;BME280;5577;42.706;23.160;2022-12-01T14:17:04;94292.16;;;1.92;100.00
11049;BME280;5577;42.706;23.160;2022-12-01T14:19:50;94288.00;;;1.91;100.00
11049;BME280;5577;42.706;23.160;2022-12-01T14:25:27;94293.22;;;1.91;100.00
11049;BME280;5577;42.706;23.160;2022-12-01T14:28:15;94297.94;;;1.89;100.00
11049;BME280;5577;42.706;23.160;2022-12-01T14:31:02;94298.03;;;1.84;100.00
11049;BME280;5577;42.706;23.160;2022-12-01T14:33:58;94293.50;;;1.90;100.00
11049;BME280;5577;42.706;23.160;2022-12-01T14:36:46;94285.47;;;1.86;100.00
11049;BME280;5577;42.706;23.160;2022-12-01T14:39:36;94297.38;;;1.92;100.00
11049;BME280;5577;42.706;23.160;2022-12-01T14:42:42;94299.97;;;1.79;100.00
11049;BME280;5577;42.706;23.160;2022-12-01T14:45:52;94314.94;;;1.73;100.00
11049;BME280;5577;42.706;23.160;2022-12-01T14:48:41;94306.03;;;1.74;100.00
11049;BME280;5577;42.706;23.160;2022-12-01T14:51:30;94309.78;;;1.68;100.00
11049;BME280;5577;42.706;23.160;2022-12-01T14:54:21;94288.03;;;1.59;100.00
11049;BME280;5577;42.706;23.160;2022-12-01T14:57:07;94304.53;;;1.55;100.00
11049;BME280;5577;42.706;23.160;2022-12-01T15:00:13;94300.94;;;1.51;100.00
11049;BME280;5577;42.706;23.160;2022-12-01T15:03:02;94313.00;;;1.47;100.00
11049;BME280;5577;42.706;23.160;2022-12-01T15:05:50;94315.69;;;1.42;100.00
11049;BME280;5577;42.706;23.160;2022-12-01T15:08:37;94317.56;;;1.55;100.00
11049;BME280;5577;42.706;23.160;2022-12-01T15:11:24;94311.97;;;1.61;100.00
11049;BME280;5577;42.706;23.160;2022-12-01T15:14:32;94317.84;;;1.53;100.00
11049;BME280;5577;42.706;23.160;2022-12-01T15:17:33;94325.19;;;1.51;100.00
11049;BME280;5577;42.706;23.160;2022-12-01T15:20:34;94326.09;;;1.60;100.00
11049;BME280;5577;42.706;23.160;2022-12-01T15:23:19;94326.59;;;1.62;100.00
11049;BME280;5577;42.706;23.160;2022-12-01T15:26:03;94313.75;;;1.47;100.00
11049;BME280;5577;42.706;23.160;2022-12-01T15:28:47;94328.13;;;1.63;100.00
11049;BME280;5577;42.706;23.160;2022-12-01T15:31:32;94328.41;;;1.62;100.00
11049;BME280;5577;42.706;23.160;2022-12-01T15:34:31;94323.56;;;1.55;100.00
11049;BME280;5577;42.706;23.160;2022-12-01T15:37:23;94315.75;;;1.55;100.00
11049;BME280;5577;42.706;23.160;2022-12-01T15:40:15;94331.56;;;1.45;100.00
11049;BME280;5577;42.706;23.160;2022-12-01T15:43:02;94327.09;;;1.46;100.00
11049;BME280;5577;42.706;23.160;2022-12-01T15:48:37;94315.53;;;1.33;100.00
11049;BME280;5577;42.706;23.160;2022-12-01T15:51:26;94318.44;;;1.32;100.00
11049;BME280;5577;42.706;23.160;2022-12-01T15:54:22;94322.34;;;1.34;100.00
11049;BME280;5577;42.706;23.160;2022-12-01T15:57:07;94323.03;;;1.40;100.00
11049;BME280;5577;42.706;23.160;2022-12-01T15:59:54;94323.03;;;1.40;100.00
11049;BME280;5577;42.706;23.160;2022-12-01T16:02:39;94320.41;;;1.40;100.00
11049;BME280;5577;42.706;23.160;2022-12-01T16:05:25;94330.28;;;1.43;100.00
11049;BME280;5577;42.706;23.160;2022-12-01T16:08:19;94321.19;;;1.40;100.00
11049;BME280;5577;42.706;23.160;2022-12-01T16:11:15;94322.25;;;1.39;100.00
11049;BME280;5577;42.706;23.160;2022-12-01T16:14:19;94325.34;;;1.41;100.00
11049;BME280;5577;42.706;23.160;2022-12-01T16:17:07;94326.19;;;1.37;100.00
11049;BME280;5577;42.706;23.160;2022-12-01T16:20:30;94327.69;;;1.43;100.00
11049;BME280;5577;42.706;23.160;2022-12-01T16:23:19;94333.47;;;1.40;100.00
11049;BME280;5577;42.706;23.160;2022-12-01T16:26:07;94337.84;;;1.44;100.00
11049;BME280;5577;42.706;23.160;2022-12-01T16:28:52;94334.91;;;1.46;100.00
11049;BME280;5577;42.706;23.160;2022-12-01T16:31:36;94339.28;;;1.50;100.00
11049;BME280;5577;42.706;23.160;2022-12-01T16:34:22;94345.47;;;1.54;100.00
11049;BME280;5577;42.706;23.160;2022-12-01T16:37:11;94339.69;;;1.57;100.00